Main page
METAR-TAF:

METAR-TAF

Airports :

George Best Belfast City Airport

Belfast City, Northern Ireland

latitude: 54-36N, longitude: 005-53W, elevation: 5 m

Current weather observation

The report was made 34 minutes ago, at 22:50 UTC
Wind 5 kt from the West, varying between South/Southwest and North
Temperature 12°C
Humidity 71%
Pressure 1013 hPa
Visibility 10 km or more

METAR: EGAC 252250Z AUTO 26005KT 210V360 9999 FEW022/// BKN043/// 12/07 Q1013

Time: 00:24 (23:24 UTC)

Forecast

The report was made 6 hours and 26 minutes ago, at 16:58 UTC
Forecast valid from 25 at 18 UTC to 25 at 21 UTC
Wind 12 kt from the West
Visibility 10 km or more
Few clouds at a height of 3500 ft

TAF: EGAC 251658Z 2518/2521 27012KT 9999 FEW035

Weather observations and forecasts of more than 4000 airports (METAR and TAF reports).

The available stations are represented by yellow and red dots on the map.

Hover mouse over dot to see the name of the station.

Then click to see weather observations and forecasts.

To change the map : click on the green buttons with a black cross to zoom in, on the green button with a dash to zoom out, or on the green arrows for adjacent maps.


METAR-TAF: